sensor_id;sensor_type;location;lat;lon;timestamp;P1;durP1;ratioP1;P2;durP2;ratioP2
74741;SDS011;76291;48.288;16.314;2024-03-17T00:00:21;1.2;;;0.6;;
74741;SDS011;76291;48.288;16.314;2024-03-17T00:01:18;1.2;;;0.6;;
74741;SDS011;76291;48.288;16.314;2024-03-17T00:02:18;1.2;;;0.6;;
74741;SDS011;76291;48.288;16.314;2024-03-17T00:03:18;1.2;;;0.6;;
74741;SDS011;76291;48.288;16.314;2024-03-17T00:04:17;0.6;;;0.6;;
74741;SDS011;76291;48.288;16.314;2024-03-17T00:05:17;0.6;;;0.6;;
74741;SDS011;76291;48.288;16.314;2024-03-17T00:06:17;0.6;;;0.6;;
74741;SDS011;76291;48.288;16.314;2024-03-17T00:07:17;0.6;;;0.6;;
74741;SDS011;76291;48.288;16.314;2024-03-17T00:08:17;0.6;;;0.6;;
74741;SDS011;76291;48.288;16.314;2024-03-17T00:09:17;1.1;;;0.7;;
74741;SDS011;76291;48.288;16.314;2024-03-17T00:10:17;1.1;;;0.7;;
74741;SDS011;76291;48.288;16.314;2024-03-17T00:11:18;1.1;;;0.7;;
74741;SDS011;76291;48.288;16.314;2024-03-17T00:12:17;1.1;;;0.7;;
74741;SDS011;76291;48.288;16.314;2024-03-17T00:13:17;1.1;;;0.7;;
74741;SDS011;76291;48.288;16.314;2024-03-17T00:14:17;1.1;;;0.8;;
74741;SDS011;76291;48.288;16.314;2024-03-17T00:15:17;1.1;;;0.8;;
74741;SDS011;76291;48.288;16.314;2024-03-17T00:16:17;1.1;;;0.8;;
74741;SDS011;76291;48.288;16.314;2024-03-17T00:17:17;1.1;;;0.8;;
74741;SDS011;76291;48.288;16.314;2024-03-17T00:18:17;1.1;;;0.8;;
74741;SDS011;76291;48.288;16.314;2024-03-17T00:19:17;1.0;;;0.9;;
74741;SDS011;76291;48.288;16.314;2024-03-17T00:20:17;1.0;;;0.9;;
74741;SDS011;76291;48.288;16.314;2024-03-17T00:21:17;1.0;;;0.9;;
74741;SDS011;76291;48.288;16.314;2024-03-17T00:22:17;1.0;;;0.9;;
74741;SDS011;76291;48.288;16.314;2024-03-17T00:23:17;1.0;;;0.9;;
74741;SDS011;76291;48.288;16.314;2024-03-17T00:24:18;1.7;;;1.1;;
74741;SDS011;76291;48.288;16.314;2024-03-17T00:26:00;1.7;;;1.1;;
74741;SDS011;76291;48.288;16.314;2024-03-17T00:27:01;1.7;;;1.1;;
74741;SDS011;76291;48.288;16.314;2024-03-17T00:28:01;1.7;;;1.1;;
74741;SDS011;76291;48.288;16.314;2024-03-17T00:29:00;1.7;;;1.1;;
74741;SDS011;76291;48.288;16.314;2024-03-17T00:30:00;2.1;;;1.5;;
74741;SDS011;76291;48.288;16.314;2024-03-17T00:31:02;2.1;;;1.5;;
74741;SDS011;76291;48.288;16.314;2024-03-17T00:32:00;2.1;;;1.5;;
74741;SDS011;76291;48.288;16.314;2024-03-17T00:33:00;2.1;;;1.5;;
74741;SDS011;76291;48.288;16.314;2024-03-17T00:34:00;2.1;;;1.5;;
74741;SDS011;76291;48.288;16.314;2024-03-17T00:34:59;2.4;;;1.6;;
74741;SDS011;76291;48.288;16.314;2024-03-17T00:35:59;2.4;;;1.6;;
74741;SDS011;76291;48.288;16.314;2024-03-17T00:36:59;2.4;;;1.6;;
74741;SDS011;76291;48.288;16.314;2024-03-17T00:37:59;2.4;;;1.6;;
74741;SDS011;76291;48.288;16.314;2024-03-17T00:38:59;2.4;;;1.6;;
74741;SDS011;76291;48.288;16.314;2024-03-17T00:40:01;1.5;;;1.4;;
74741;SDS011;76291;48.288;16.314;2024-03-17T00:40:59;1.5;;;1.4;;
74741;SDS011;76291;48.288;16.314;2024-03-17T00:41:59;1.5;;;1.4;;
74741;SDS011;76291;48.288;16.314;2024-03-17T00:42:59;1.5;;;1.4;;
74741;SDS011;76291;48.288;16.314;2024-03-17T00:43:59;1.5;;;1.4;;
74741;SDS011;76291;48.288;16.314;2024-03-17T00:44:59;2.4;;;1.5;;
74741;SDS011;76291;48.288;16.314;2024-03-17T00:45:59;2.4;;;1.5;;
74741;SDS011;76291;48.288;16.314;2024-03-17T00:46:59;2.4;;;1.5;;
74741;SDS011;76291;48.288;16.314;2024-03-17T00:47:59;2.4;;;1.5;;
74741;SDS011;76291;48.288;16.314;2024-03-17T00:48:59;2.4;;;1.5;;
74741;SDS011;76291;48.288;16.314;2024-03-17T00:49:59;2.3;;;1.7;;
74741;SDS011;76291;48.288;16.314;2024-03-17T00:51:02;2.3;;;1.7;;
74741;SDS011;76291;48.288;16.314;2024-03-17T00:51:59;2.3;;;1.7;;
74741;SDS011;76291;48.288;16.314;2024-03-17T00:53:00;2.3;;;1.7;;
74741;SDS011;76291;48.288;16.314;2024-03-17T00:53:59;2.3;;;1.7;;
74741;SDS011;76291;48.288;16.314;2024-03-17T00:54:59;1.8;;;1.7;;
74741;SDS011;76291;48.288;16.314;2024-03-17T00:55:59;1.8;;;1.7;;
74741;SDS011;76291;48.288;16.314;2024-03-17T00:56:59;1.8;;;1.7;;
74741;SDS011;76291;48.288;16.314;2024-03-17T00:57:59;1.8;;;1.7;;
74741;SDS011;76291;48.288;16.314;2024-03-17T00:58:59;1.8;;;1.7;;
74741;SDS011;76291;48.288;16.314;2024-03-17T00:59:59;2.8;;;1.7;;
74741;SDS011;76291;48.288;16.314;2024-03-17T01:00:59;2.8;;;1.7;;
74741;SDS011;76291;48.288;16.314;2024-03-17T01:01:59;2.8;;;1.7;;
74741;SDS011;76291;48.288;16.314;2024-03-17T01:02:59;2.8;;;1.7;;
74741;SDS011;76291;48.288;16.314;2024-03-17T01:03:59;2.8;;;1.7;;
74741;SDS011;76291;48.288;16.314;2024-03-17T01:04:59;2.2;;;1.7;;
74741;SDS011;76291;48.288;16.314;2024-03-17T01:05:59;2.2;;;1.7;;
74741;SDS011;76291;48.288;16.314;2024-03-17T01:06:59;2.2;;;1.7;;
74741;SDS011;76291;48.288;16.314;2024-03-17T01:07:58;2.2;;;1.7;;
74741;SDS011;76291;48.288;16.314;2024-03-17T01:08:58;2.2;;;1.7;;
74741;SDS011;76291;48.288;16.314;2024-03-17T01:09:58;2.3;;;2.1;;
74741;SDS011;76291;48.288;16.314;2024-03-17T01:10:59;2.3;;;2.1;;
74741;SDS011;76291;48.288;16.314;2024-03-17T01:11:58;2.3;;;2.1;;
74741;SDS011;76291;48.288;16.314;2024-03-17T01:12:58;2.3;;;2.1;;
74741;SDS011;76291;48.288;16.314;2024-03-17T01:13:59;2.3;;;2.1;;
74741;SDS011;76291;48.288;16.314;2024-03-17T01:14:58;1.9;;;1.7;;
74741;SDS011;76291;48.288;16.314;2024-03-17T01:15:58;1.9;;;1.7;;
74741;SDS011;76291;48.288;16.314;2024-03-17T01:17:00;1.9;;;1.7;;
74741;SDS011;76291;48.288;16.314;2024-03-17T01:17:58;1.9;;;1.7;;
74741;SDS011;76291;48.288;16.314;2024-03-17T01:18:58;1.9;;;1.7;;
74741;SDS011;76291;48.288;16.314;2024-03-17T01:19:58;3.3;;;2.3;;
74741;SDS011;76291;48.288;16.314;2024-03-17T01:20:59;3.3;;;2.3;;
74741;SDS011;76291;48.288;16.314;2024-03-17T01:22:01;3.3;;;2.3;;
74741;SDS011;76291;48.288;16.314;2024-03-17T01:22:58;3.3;;;2.3;;
74741;SDS011;76291;48.288;16.314;2024-03-17T01:23:58;3.3;;;2.3;;
74741;SDS011;76291;48.288;16.314;2024-03-17T01:24:58;2.3;;;2.1;;
74741;SDS011;76291;48.288;16.314;2024-03-17T01:25:58;2.3;;;2.1;;
74741;SDS011;76291;48.288;16.314;2024-03-17T01:26:58;2.3;;;2.1;;
74741;SDS011;76291;48.288;16.314;2024-03-17T01:27:58;2.3;;;2.1;;
74741;SDS011;76291;48.288;16.314;2024-03-17T01:28:58;2.3;;;2.1;;
74741;SDS011;76291;48.288;16.314;2024-03-17T01:29:58;2.7;;;2.5;;
74741;SDS011;76291;48.288;16.314;2024-03-17T01:30:58;2.7;;;2.5;;
74741;SDS011;76291;48.288;16.314;2024-03-17T01:31:58;2.7;;;2.5;;
74741;SDS011;76291;48.288;16.314;2024-03-17T01:32:58;2.7;;;2.5;;
74741;SDS011;76291;48.288;16.314;2024-03-17T01:33:58;2.7;;;2.5;;
74741;SDS011;76291;48.288;16.314;2024-03-17T01:34:58;2.9;;;2.5;;
74741;SDS011;76291;48.288;16.314;2024-03-17T01:35:58;2.9;;;2.5;;
74741;SDS011;76291;48.288;16.314;2024-03-17T01:36:58;2.9;;;2.5;;
74741;SDS011;76291;48.288;16.314;2024-03-17T01:37:58;2.9;;;2.5;;
74741;SDS011;76291;48.288;16.314;2024-03-17T01:38:58;2.9;;;2.5;;
74741;SDS011;76291;48.288;16.314;2024-03-17T01:39:59;3.7;;;3.0;;
74741;SDS011;76291;48.288;16.314;2024-03-17T01:40:58;3.7;;;3.0;;
74741;SDS011;76291;48.288;16.314;2024-03-17T01:41:58;3.7;;;3.0;;
74741;SDS011;76291;48.288;16.314;2024-03-17T01:42:57;3.7;;;3.0;;
74741;SDS011;76291;48.288;16.314;2024-03-17T01:43:57;3.7;;;3.0;;
74741;SDS011;76291;48.288;16.314;2024-03-17T01:44:57;3.0;;;2.7;;
74741;SDS011;76291;48.288;16.314;2024-03-17T01:45:58;3.0;;;2.7;;
74741;SDS011;76291;48.288;16.314;2024-03-17T01:46:57;3.0;;;2.7;;
74741;SDS011;76291;48.288;16.314;2024-03-17T01:47:59;3.0;;;2.7;;
74741;SDS011;76291;48.288;16.314;2024-03-17T01:48:57;3.0;;;2.7;;
74741;SDS011;76291;48.288;16.314;2024-03-17T01:49:57;5.0;;;3.6;;
74741;SDS011;76291;48.288;16.314;2024-03-17T01:50:57;5.0;;;3.6;;
74741;SDS011;76291;48.288;16.314;2024-03-17T01:51:57;5.0;;;3.6;;
74741;SDS011;76291;48.288;16.314;2024-03-17T01:52:59;5.0;;;3.6;;
74741;SDS011;76291;48.288;16.314;2024-03-17T01:53:58;5.0;;;3.6;;
74741;SDS011;76291;48.288;16.314;2024-03-17T01:54:57;5.7;;;4.2;;
74741;SDS011;76291;48.288;16.314;2024-03-17T01:55:59;5.7;;;4.2;;
74741;SDS011;76291;48.288;16.314;2024-03-17T01:56:57;5.7;;;4.2;;
74741;SDS011;76291;48.288;16.314;2024-03-17T01:57:57;5.7;;;4.2;;
74741;SDS011;76291;48.288;16.314;2024-03-17T01:58:57;5.7;;;4.2;;
74741;SDS011;76291;48.288;16.314;2024-03-17T01:59:58;7.3;;;4.2;;
74741;SDS011;76291;48.288;16.314;2024-03-17T02:00:57;7.3;;;4.2;;
74741;SDS011;76291;48.288;16.314;2024-03-17T02:01:57;7.3;;;4.2;;
74741;SDS011;76291;48.288;16.314;2024-03-17T02:02:57;7.3;;;4.2;;
74741;SDS011;76291;48.288;16.314;2024-03-17T02:03:58;7.3;;;4.2;;
74741;SDS011;76291;48.288;16.314;2024-03-17T02:04:57;5.6;;;4.4;;
74741;SDS011;76291;48.288;16.314;2024-03-17T02:05:58;5.6;;;4.4;;
74741;SDS011;76291;48.288;16.314;2024-03-17T02:06:57;5.6;;;4.4;;
74741;SDS011;76291;48.288;16.314;2024-03-17T02:07:57;5.6;;;4.4;;
74741;SDS011;76291;48.288;16.314;2024-03-17T02:08:59;6.2;;;4.1;;
74741;SDS011;76291;48.288;16.314;2024-03-17T02:09:57;6.2;;;4.1;;
74741;SDS011;76291;48.288;16.314;2024-03-17T02:10:57;6.2;;;4.1;;
74741;SDS011;76291;48.288;16.314;2024-03-17T02:11:57;6.2;;;4.1;;
74741;SDS011;76291;48.288;16.314;2024-03-17T02:12:57;6.2;;;4.1;;
74741;SDS011;76291;48.288;16.314;2024-03-17T02:13:57;6.2;;;4.1;;
74741;SDS011;76291;48.288;16.314;2024-03-17T02:14:59;6.5;;;4.9;;
74741;SDS011;76291;48.288;16.314;2024-03-17T02:15:56;6.5;;;4.9;;
74741;SDS011;76291;48.288;16.314;2024-03-17T02:16:56;6.5;;;4.9;;
74741;SDS011;76291;48.288;16.314;2024-03-17T02:17:56;6.5;;;4.9;;
74741;SDS011;76291;48.288;16.314;2024-03-17T02:18:57;6.5;;;4.9;;
74741;SDS011;76291;48.288;16.314;2024-03-17T02:19:56;7.6;;;4.5;;
74741;SDS011;76291;48.288;16.314;2024-03-17T02:20:56;7.6;;;4.5;;
74741;SDS011;76291;48.288;16.314;2024-03-17T02:21:57;7.6;;;4.5;;
74741;SDS011;76291;48.288;16.314;2024-03-17T02:22:56;7.6;;;4.5;;
74741;SDS011;76291;48.288;16.314;2024-03-17T02:23:57;7.6;;;4.5;;
74741;SDS011;76291;48.288;16.314;2024-03-17T02:24:57;7.1;;;4.8;;
74741;SDS011;76291;48.288;16.314;2024-03-17T02:25:56;7.1;;;4.8;;
74741;SDS011;76291;48.288;16.314;2024-03-17T02:26:56;7.1;;;4.8;;
74741;SDS011;76291;48.288;16.314;2024-03-17T02:27:56;7.1;;;4.8;;
74741;SDS011;76291;48.288;16.314;2024-03-17T02:28:56;7.1;;;4.8;;
74741;SDS011;76291;48.288;16.314;2024-03-17T02:29:56;8.0;;;4.9;;
74741;SDS011;76291;48.288;16.314;2024-03-17T02:30:56;8.0;;;4.9;;
74741;SDS011;76291;48.288;16.314;2024-03-17T02:31:56;8.0;;;4.9;;
74741;SDS011;76291;48.288;16.314;2024-03-17T02:32:56;8.0;;;4.9;;
74741;SDS011;76291;48.288;16.314;2024-03-17T02:33:56;8.0;;;4.9;;
74741;SDS011;76291;48.288;16.314;2024-03-17T02:34:56;8.4;;;4.9;;
74741;SDS011;76291;48.288;16.314;2024-03-17T02:35:56;8.4;;;4.9;;
74741;SDS011;76291;48.288;16.314;2024-03-17T02:36:56;8.4;;;4.9;;
74741;SDS011;76291;48.288;16.314;2024-03-17T02:37:56;8.4;;;4.9;;
74741;SDS011;76291;48.288;16.314;2024-03-17T02:38:56;8.4;;;4.9;;
74741;SDS011;76291;48.288;16.314;2024-03-17T02:39:56;10.3;;;4.6;;
74741;SDS011;76291;48.288;16.314;2024-03-17T02:40:56;10.3;;;4.6;;
74741;SDS011;76291;48.288;16.314;2024-03-17T02:41:56;10.3;;;4.6;;
74741;SDS011;76291;48.288;16.314;2024-03-17T02:42:56;10.3;;;4.6;;
74741;SDS011;76291;48.288;16.314;2024-03-17T02:43:56;10.3;;;4.6;;
74741;SDS011;76291;48.288;16.314;2024-03-17T02:44:56;7.3;;;4.7;;
74741;SDS011;76291;48.288;16.314;2024-03-17T02:45:56;7.3;;;4.7;;
74741;SDS011;76291;48.288;16.314;2024-03-17T02:46:57;7.3;;;4.7;;
74741;SDS011;76291;48.288;16.314;2024-03-17T02:47:55;7.3;;;4.7;;
74741;SDS011;76291;48.288;16.314;2024-03-17T02:48:55;7.3;;;4.7;;
74741;SDS011;76291;48.288;16.314;2024-03-17T02:49:55;9.2;;;5.1;;
74741;SDS011;76291;48.288;16.314;2024-03-17T02:50:56;9.2;;;5.1;;
74741;SDS011;76291;48.288;16.314;2024-03-17T02:51:55;9.2;;;5.1;;
74741;SDS011;76291;48.288;16.314;2024-03-17T02:52:55;9.2;;;5.1;;
74741;SDS011;76291;48.288;16.314;2024-03-17T02:53:55;9.2;;;5.1;;
74741;SDS011;76291;48.288;16.314;2024-03-17T02:54:56;7.0;;;5.0;;
74741;SDS011;76291;48.288;16.314;2024-03-17T02:55:56;7.0;;;5.0;;
74741;SDS011;76291;48.288;16.314;2024-03-17T02:56:55;7.0;;;5.0;;
74741;SDS011;76291;48.288;16.314;2024-03-17T02:57:55;7.0;;;5.0;;
74741;SDS011;76291;48.288;16.314;2024-03-17T02:58:55;9.4;;;5.3;;
74741;SDS011;76291;48.288;16.314;2024-03-17T02:59:55;9.4;;;5.3;;
74741;SDS011;76291;48.288;16.314;2024-03-17T03:00:55;9.4;;;5.3;;
74741;SDS011;76291;48.288;16.314;2024-03-17T03:01:55;9.4;;;5.3;;
74741;SDS011;76291;48.288;16.314;2024-03-17T03:02:55;9.4;;;5.3;;
74741;SDS011;76291;48.288;16.314;2024-03-17T03:03:55;8.6;;;4.9;;
74741;SDS011;76291;48.288;16.314;2024-03-17T03:04:55;8.6;;;4.9;;
74741;SDS011;76291;48.288;16.314;2024-03-17T03:05:55;8.6;;;4.9;;
74741;SDS011;76291;48.288;16.314;2024-03-17T03:06:55;8.6;;;4.9;;
74741;SDS011;76291;48.288;16.314;2024-03-17T03:07:55;8.6;;;4.9;;
74741;SDS011;76291;48.288;16.314;2024-03-17T03:08:55;8.2;;;4.8;;
74741;SDS011;76291;48.288;16.314;2024-03-17T03:09:55;8.2;;;4.8;;
74741;SDS011;76291;48.288;16.314;2024-03-17T03:10:55;8.2;;;4.8;;
74741;SDS011;76291;48.288;16.314;2024-03-17T03:11:55;8.2;;;4.8;;
74741;SDS011;76291;48.288;16.314;2024-03-17T03:12:55;8.2;;;4.8;;
74741;SDS011;76291;48.288;16.314;2024-03-17T03:13:55;9.1;;;5.7;;
74741;SDS011;76291;48.288;16.314;2024-03-17T03:14:55;9.1;;;5.7;;
74741;SDS011;76291;48.288;16.314;2024-03-17T03:15:55;9.1;;;5.7;;
74741;SDS011;76291;48.288;16.314;2024-03-17T03:16:55;9.1;;;5.7;;
74741;SDS011;76291;48.288;16.314;2024-03-17T03:17:55;9.1;;;5.7;;
74741;SDS011;76291;48.288;16.314;2024-03-17T03:18:55;8.0;;;5.2;;
74741;SDS011;76291;48.288;16.314;2024-03-17T03:19:55;8.0;;;5.2;;
74741;SDS011;76291;48.288;16.314;2024-03-17T03:20:55;8.0;;;5.2;;
74741;SDS011;76291;48.288;16.314;2024-03-17T03:21:54;8.0;;;5.2;;
74741;SDS011;76291;48.288;16.314;2024-03-17T03:22:54;8.0;;;5.2;;
74741;SDS011;76291;48.288;16.314;2024-03-17T03:23:54;8.7;;;5.4;;
74741;SDS011;76291;48.288;16.314;2024-03-17T03:24:54;8.7;;;5.4;;
74741;SDS011;76291;48.288;16.314;2024-03-17T03:25:55;8.7;;;5.4;;
74741;SDS011;76291;48.288;16.314;2024-03-17T03:26:54;8.7;;;5.4;;
74741;SDS011;76291;48.288;16.314;2024-03-17T03:27:54;8.7;;;5.4;;
74741;SDS011;76291;48.288;16.314;2024-03-17T03:28:54;9.6;;;5.4;;
74741;SDS011;76291;48.288;16.314;2024-03-17T03:29:54;9.6;;;5.4;;
74741;SDS011;76291;48.288;16.314;2024-03-17T03:30:54;9.6;;;5.4;;
74741;SDS011;76291;48.288;16.314;2024-03-17T03:31:54;9.6;;;5.4;;
74741;SDS011;76291;48.288;16.314;2024-03-17T03:32:55;9.6;;;5.4;;
74741;SDS011;76291;48.288;16.314;2024-03-17T03:33:54;7.7;;;5.3;;
74741;SDS011;76291;48.288;16.314;2024-03-17T03:34:54;7.7;;;5.3;;
74741;SDS011;76291;48.288;16.314;2024-03-17T03:35:54;7.7;;;5.3;;
74741;SDS011;76291;48.288;16.314;2024-03-17T03:36:54;7.7;;;5.3;;
74741;SDS011;76291;48.288;16.314;2024-03-17T03:37:54;7.7;;;5.3;;
74741;SDS011;76291;48.288;16.314;2024-03-17T03:38:54;8.0;;;5.0;;
74741;SDS011;76291;48.288;16.314;2024-03-17T03:39:54;8.0;;;5.0;;
74741;SDS011;76291;48.288;16.314;2024-03-17T03:40:54;8.0;;;5.0;;
74741;SDS011;76291;48.288;16.314;2024-03-17T03:41:54;8.0;;;5.0;;
74741;SDS011;76291;48.288;16.314;2024-03-17T03:42:54;8.0;;;5.0;;
74741;SDS011;76291;48.288;16.314;2024-03-17T03:43:54;9.7;;;5.5;;
74741;SDS011;76291;48.288;16.314;2024-03-17T03:44:54;9.7;;;5.5;;
74741;SDS011;76291;48.288;16.314;2024-03-17T03:45:54;9.7;;;5.5;;
74741;SDS011;76291;48.288;16.314;2024-03-17T03:46:54;9.7;;;5.5;;
74741;SDS011;76291;48.288;16.314;2024-03-17T03:47:54;9.7;;;5.5;;
74741;SDS011;76291;48.288;16.314;2024-03-17T03:48:54;11.6;;;5.6;;
74741;SDS011;76291;48.288;16.314;2024-03-17T03:49:54;11.6;;;5.6;;
74741;SDS011;76291;48.288;16.314;2024-03-17T03:50:54;11.6;;;5.6;;
74741;SDS011;76291;48.288;16.314;2024-03-17T03:51:54;11.6;;;5.6;;
74741;SDS011;76291;48.288;16.314;2024-03-17T03:52:54;11.6;;;5.6;;
74741;SDS011;76291;48.288;16.314;2024-03-17T03:53:53;7.7;;;5.5;;
74741;SDS011;76291;48.288;16.314;2024-03-17T03:54:53;7.7;;;5.5;;
74741;SDS011;76291;48.288;16.314;2024-03-17T03:55:54;7.7;;;5.5;;
74741;SDS011;76291;48.288;16.314;2024-03-17T03:56:53;7.7;;;5.5;;
74741;SDS011;76291;48.288;16.314;2024-03-17T03:57:54;7.7;;;5.5;;
74741;SDS011;76291;48.288;16.314;2024-03-17T03:58:53;8.5;;;5.8;;
74741;SDS011;76291;48.288;16.314;2024-03-17T03:59:53;8.5;;;5.8;;
74741;SDS011;76291;48.288;16.314;2024-03-17T04:00:53;8.5;;;5.8;;
74741;SDS011;76291;48.288;16.314;2024-03-17T04:01:53;8.5;;;5.8;;
74741;SDS011;76291;48.288;16.314;2024-03-17T04:02:53;8.5;;;5.8;;
74741;SDS011;76291;48.288;16.314;2024-03-17T04:03:53;8.5;;;5.8;;
74741;SDS011;76291;48.288;16.314;2024-03-17T04:04:53;8.5;;;5.8;;
74741;SDS011;76291;48.288;16.314;2024-03-17T04:06:01;8.5;;;5.8;;
74741;SDS011;76291;48.288;16.314;2024-03-17T04:06:53;8.5;;;5.8;;
74741;SDS011;76291;48.288;16.314;2024-03-17T04:07:53;8.5;;;5.8;;
74741;SDS011;76291;48.288;16.314;2024-03-17T04:08:53;7.1;;;5.9;;
74741;SDS011;76291;48.288;16.314;2024-03-17T04:09:53;7.1;;;5.9;;
74741;SDS011;76291;48.288;16.314;2024-03-17T04:11:03;7.1;;;5.9;;
74741;SDS011;76291;48.288;16.314;2024-03-17T04:11:55;7.1;;;5.9;;
74741;SDS011;76291;48.288;16.314;2024-03-17T04:12:53;7.1;;;5.9;;
74741;SDS011;76291;48.288;16.314;2024-03-17T04:13:53;10.1;;;6.1;;
74741;SDS011;76291;48.288;16.314;2024-03-17T04:14:53;10.1;;;6.1;;
74741;SDS011;76291;48.288;16.314;2024-03-17T04:15:53;10.1;;;6.1;;
74741;SDS011;76291;48.288;16.314;2024-03-17T04:16:53;10.1;;;6.1;;
74741;SDS011;76291;48.288;16.314;2024-03-17T04:17:53;10.1;;;6.1;;
74741;SDS011;76291;48.288;16.314;2024-03-17T04:18:53;8.8;;;5.9;;
74741;SDS011;76291;48.288;16.314;2024-03-17T04:19:54;8.8;;;5.9;;
74741;SDS011;76291;48.288;16.314;2024-03-17T04:20:53;8.8;;;5.9;;
74741;SDS011;76291;48.288;16.314;2024-03-17T04:21:54;8.8;;;5.9;;
74741;SDS011;76291;48.288;16.314;2024-03-17T04:22:53;8.8;;;5.9;;
74741;SDS011;76291;48.288;16.314;2024-03-17T04:23:53;7.7;;;6.1;;
74741;SDS011;76291;48.288;16.314;2024-03-17T04:24:53;7.7;;;6.1;;
74741;SDS011;76291;48.288;16.314;2024-03-17T04:25:53;7.7;;;6.1;;
74741;SDS011;76291;48.288;16.314;2024-03-17T04:26:53;7.7;;;6.1;;
74741;SDS011;76291;48.288;16.314;2024-03-17T04:27:53;7.7;;;6.1;;
74741;SDS011;76291;48.288;16.314;2024-03-17T04:28:54;8.6;;;5.9;;
74741;SDS011;76291;48.288;16.314;2024-03-17T04:29:53;8.6;;;5.9;;
74741;SDS011;76291;48.288;16.314;2024-03-17T04:30:52;8.6;;;5.9;;
74741;SDS011;76291;48.288;16.314;2024-03-17T04:31:52;8.6;;;5.9;;
74741;SDS011;76291;48.288;16.314;2024-03-17T04:32:52;8.6;;;5.9;;
74741;SDS011;76291;48.288;16.314;2024-03-17T04:33:52;8.9;;;6.3;;
74741;SDS011;76291;48.288;16.314;2024-03-17T04:34:52;8.9;;;6.3;;
74741;SDS011;76291;48.288;16.314;2024-03-17T04:35:52;8.9;;;6.3;;
74741;SDS011;76291;48.288;16.314;2024-03-17T04:36:52;8.9;;;6.3;;
74741;SDS011;76291;48.288;16.314;2024-03-17T04:37:52;8.9;;;6.3;;
74741;SDS011;76291;48.288;16.314;2024-03-17T04:38:52;9.9;;;6.0;;
74741;SDS011;76291;48.288;16.314;2024-03-17T04:39:53;9.9;;;6.0;;
74741;SDS011;76291;48.288;16.314;2024-03-17T04:40:53;9.9;;;6.0;;
74741;SDS011;76291;48.288;16.314;2024-03-17T04:41:52;9.9;;;6.0;;
74741;SDS011;76291;48.288;16.314;2024-03-17T04:42:52;9.9;;;6.0;;
74741;SDS011;76291;48.288;16.314;2024-03-17T04:43:52;9.9;;;6.1;;
74741;SDS011;76291;48.288;16.314;2024-03-17T04:44:52;9.9;;;6.1;;
74741;SDS011;76291;48.288;16.314;2024-03-17T04:45:58;9.9;;;6.1;;
74741;SDS011;76291;48.288;16.314;2024-03-17T04:46:53;9.9;;;6.1;;
74741;SDS011;76291;48.288;16.314;2024-03-17T04:47:52;9.9;;;6.1;;
74741;SDS011;76291;48.288;16.314;2024-03-17T04:48:52;10.2;;;6.7;;
74741;SDS011;76291;48.288;16.314;2024-03-17T04:49:53;10.2;;;6.7;;
74741;SDS011;76291;48.288;16.314;2024-03-17T04:50:52;10.2;;;6.7;;
74741;SDS011;76291;48.288;16.314;2024-03-17T04:51:52;10.2;;;6.7;;
74741;SDS011;76291;48.288;16.314;2024-03-17T04:52:52;10.2;;;6.7;;
74741;SDS011;76291;48.288;16.314;2024-03-17T04:53:52;10.3;;;6.6;;
74741;SDS011;76291;48.288;16.314;2024-03-17T04:54:52;10.3;;;6.6;;
74741;SDS011;76291;48.288;16.314;2024-03-17T04:56:07;10.3;;;6.6;;
74741;SDS011;76291;48.288;16.314;2024-03-17T04:59:52;10.5;;;7.1;;
74741;SDS011;76291;48.288;16.314;2024-03-17T05:00:52;10.5;;;7.1;;
74741;SDS011;76291;48.288;16.314;2024-03-17T05:01:53;10.5;;;7.1;;
74741;SDS011;76291;48.288;16.314;2024-03-17T05:02:51;10.5;;;7.1;;
74741;SDS011;76291;48.288;16.314;2024-03-17T05:03:51;9.7;;;7.0;;
74741;SDS011;76291;48.288;16.314;2024-03-17T05:04:51;9.7;;;7.0;;
74741;SDS011;76291;48.288;16.314;2024-03-17T05:05:58;9.7;;;7.0;;
74741;SDS011;76291;48.288;16.314;2024-03-17T05:06:51;9.7;;;7.0;;
74741;SDS011;76291;48.288;16.314;2024-03-17T05:07:51;9.7;;;7.0;;
74741;SDS011;76291;48.288;16.314;2024-03-17T05:08:51;10.0;;;7.0;;
74741;SDS011;76291;48.288;16.314;2024-03-17T05:09:51;10.0;;;7.0;;
74741;SDS011;76291;48.288;16.314;2024-03-17T05:10:57;10.0;;;7.0;;
74741;SDS011;76291;48.288;16.314;2024-03-17T05:11:51;10.0;;;7.0;;
74741;SDS011;76291;48.288;16.314;2024-03-17T05:12:51;10.0;;;7.0;;
74741;SDS011;76291;48.288;16.314;2024-03-17T05:13:51;9.6;;;7.2;;
74741;SDS011;76291;48.288;16.314;2024-03-17T05:14:51;9.6;;;7.2;;
74741;SDS011;76291;48.288;16.314;2024-03-17T05:15:51;9.6;;;7.2;;
74741;SDS011;76291;48.288;16.314;2024-03-17T05:16:51;9.6;;;7.2;;
74741;SDS011;76291;48.288;16.314;2024-03-17T05:17:51;9.6;;;7.2;;
74741;SDS011;76291;48.288;16.314;2024-03-17T05:18:51;12.3;;;7.0;;
74741;SDS011;76291;48.288;16.314;2024-03-17T05:19:51;12.3;;;7.0;;
74741;SDS011;76291;48.288;16.314;2024-03-17T05:20:59;12.3;;;7.0;;
74741;SDS011;76291;48.288;16.314;2024-03-17T05:21:51;12.3;;;7.0;;
74741;SDS011;76291;48.288;16.314;2024-03-17T05:22:51;12.3;;;7.0;;
74741;SDS011;76291;48.288;16.314;2024-03-17T05:23:51;9.3;;;7.1;;
74741;SDS011;76291;48.288;16.314;2024-03-17T05:24:51;9.3;;;7.1;;
74741;SDS011;76291;48.288;16.314;2024-03-17T05:25:51;9.3;;;7.1;;
74741;SDS011;76291;48.288;16.314;2024-03-17T05:26:51;9.3;;;7.1;;
74741;SDS011;76291;48.288;16.314;2024-03-17T05:27:51;9.3;;;7.1;;
74741;SDS011;76291;48.288;16.314;2024-03-17T05:28:51;8.8;;;6.3;;
74741;SDS011;76291;48.288;16.314;2024-03-17T05:29:51;8.8;;;6.3;;
74741;SDS011;76291;48.288;16.314;2024-03-17T05:30:51;8.8;;;6.3;;
74741;SDS011;76291;48.288;16.314;2024-03-17T05:31:51;8.8;;;6.3;;
74741;SDS011;76291;48.288;16.314;2024-03-17T05:32:51;8.8;;;6.3;;
74741;SDS011;76291;48.288;16.314;2024-03-17T05:33:51;9.7;;;5.6;;
74741;SDS011;76291;48.288;16.314;2024-03-17T05:34:51;9.7;;;5.6;;
74741;SDS011;76291;48.288;16.314;2024-03-17T05:35:51;9.7;;;5.6;;
74741;SDS011;76291;48.288;16.314;2024-03-17T05:36:51;9.7;;;5.6;;
74741;SDS011;76291;48.288;16.314;2024-03-17T05:37:50;9.7;;;5.6;;
74741;SDS011;76291;48.288;16.314;2024-03-17T05:38:50;9.2;;;6.2;;
74741;SDS011;76291;48.288;16.314;2024-03-17T05:39:50;9.2;;;6.2;;
74741;SDS011;76291;48.288;16.314;2024-03-17T05:40:53;9.2;;;6.2;;
74741;SDS011;76291;48.288;16.314;2024-03-17T05:41:51;9.2;;;6.2;;
74741;SDS011;76291;48.288;16.314;2024-03-17T05:42:50;9.2;;;6.2;;
74741;SDS011;76291;48.288;16.314;2024-03-17T05:43:50;9.9;;;5.9;;
74741;SDS011;76291;48.288;16.314;2024-03-17T05:44:50;9.9;;;5.9;;
74741;SDS011;76291;48.288;16.314;2024-03-17T05:45:51;9.9;;;5.9;;
74741;SDS011;76291;48.288;16.314;2024-03-17T05:46:50;9.9;;;5.9;;
74741;SDS011;76291;48.288;16.314;2024-03-17T05:47:50;9.9;;;5.9;;
74741;SDS011;76291;48.288;16.314;2024-03-17T05:48:50;10.3;;;5.8;;
74741;SDS011;76291;48.288;16.314;2024-03-17T05:49:50;10.3;;;5.8;;
74741;SDS011;76291;48.288;16.314;2024-03-17T05:50:50;10.3;;;5.8;;
74741;SDS011;76291;48.288;16.314;2024-03-17T05:51:50;10.3;;;5.8;;
74741;SDS011;76291;48.288;16.314;2024-03-17T05:52:50;10.3;;;5.8;;
74741;SDS011;76291;48.288;16.314;2024-03-17T05:53:50;10.4;;;5.6;;
74741;SDS011;76291;48.288;16.314;2024-03-17T05:54:50;10.4;;;5.6;;
74741;SDS011;76291;48.288;16.314;2024-03-17T05:55:50;10.4;;;5.6;;
74741;SDS011;76291;48.288;16.314;2024-03-17T05:56:50;10.4;;;5.6;;
74741;SDS011;76291;48.288;16.314;2024-03-17T05:57:50;10.4;;;5.6;;
74741;SDS011;76291;48.288;16.314;2024-03-17T05:58:50;8.2;;;5.3;;
74741;SDS011;76291;48.288;16.314;2024-03-17T05:59:50;8.2;;;5.3;;
74741;SDS011;76291;48.288;16.314;2024-03-17T06:00:50;8.2;;;5.3;;
74741;SDS011;76291;48.288;16.314;2024-03-17T06:01:50;8.2;;;5.3;;
74741;SDS011;76291;48.288;16.314;2024-03-17T06:02:50;8.2;;;5.3;;
74741;SDS011;76291;48.288;16.314;2024-03-17T06:03:50;9.5;;;5.3;;
74741;SDS011;76291;48.288;16.314;2024-03-17T06:04:50;9.5;;;5.3;;
74741;SDS011;76291;48.288;16.314;2024-03-17T06:05:50;9.5;;;5.3;;
74741;SDS011;76291;48.288;16.314;2024-03-17T06:06:50;9.5;;;5.3;;
74741;SDS011;76291;48.288;16.314;2024-03-17T06:07:52;9.5;;;5.3;;
74741;SDS011;76291;48.288;16.314;2024-03-17T06:08:49;8.1;;;5.1;;
74741;SDS011;76291;48.288;16.314;2024-03-17T06:09:50;8.1;;;5.1;;